createdAt,value
2023-05-23T00:00:17.994Z,99.90
2023-05-23T00:02:45.190Z,99.90
2023-05-23T00:05:12.296Z,99.90
2023-05-23T00:07:39.424Z,99.90
2023-05-23T00:10:06.684Z,99.90
2023-05-23T00:12:37.933Z,99.90
2023-05-23T00:15:05.511Z,99.90
2023-05-23T00:17:32.576Z,99.90
2023-05-23T00:19:59.603Z,99.90
2023-05-23T00:22:26.544Z,99.90
2023-05-23T00:24:53.540Z,99.90
2023-05-23T00:27:20.622Z,99.90
2023-05-23T00:29:47.649Z,99.90
2023-05-23T00:32:14.687Z,99.90
2023-05-23T00:34:41.691Z,99.90
2023-05-23T00:37:08.714Z,99.90
2023-05-23T00:39:35.685Z,99.90
2023-05-23T00:42:04.926Z,99.90
2023-05-23T00:44:32.114Z,99.90
2023-05-23T00:46:59.902Z,99.90
2023-05-23T00:49:28.441Z,99.90
2023-05-23T00:51:55.779Z,99.90
2023-05-23T00:54:27.580Z,99.90
2023-05-23T00:56:55.109Z,99.90
2023-05-23T00:59:23.004Z,99.90
2023-05-23T01:01:51.118Z,99.90
2023-05-23T01:04:18.278Z,99.90
2023-05-23T01:06:47.320Z,99.90
2023-05-23T01:09:19.472Z,99.90
2023-05-23T01:12:08.336Z,99.90
2023-05-23T01:14:42.583Z,99.90
2023-05-23T01:17:16.520Z,99.90
2023-05-23T01:19:56.957Z,99.90
2023-05-23T01:22:31.282Z,99.90
2023-05-23T01:25:03.285Z,99.90
2023-05-23T01:27:46.835Z,99.90
2023-05-23T01:30:14.380Z,99.90
2023-05-23T01:32:41.932Z,99.90
2023-05-23T01:35:09.444Z,99.90
2023-05-23T01:37:36.449Z,99.90
2023-05-23T01:40:03.596Z,99.90
2023-05-23T01:42:30.916Z,99.90
2023-05-23T01:44:59.839Z,99.90
2023-05-23T01:47:27.017Z,99.90
2023-05-23T01:49:55.794Z,99.90
2023-05-23T01:52:23.730Z,99.90
2023-05-23T01:54:51.299Z,99.90
2023-05-23T01:57:18.469Z,99.90
2023-05-23T01:59:45.476Z,99.90
2023-05-23T02:02:12.640Z,99.90
2023-05-23T02:04:39.673Z,99.90
2023-05-23T02:07:07.572Z,99.90
2023-05-23T02:09:34.586Z,99.90
2023-05-23T02:12:01.764Z,99.90
2023-05-23T02:14:28.827Z,99.90
2023-05-23T02:16:55.910Z,99.90
2023-05-23T02:19:23.022Z,99.90
2023-05-23T02:21:50.048Z,99.90
2023-05-23T02:24:17.080Z,99.90
2023-05-23T02:26:44.086Z,99.90
2023-05-23T02:29:11.076Z,99.90
2023-05-23T02:31:38.319Z,99.90
2023-05-23T02:34:05.763Z,99.90
2023-05-23T02:36:33.867Z,99.90
2023-05-23T02:39:00.935Z,99.90
2023-05-23T02:41:27.961Z,99.90
2023-05-23T02:43:55.079Z,99.90
2023-05-23T02:46:22.154Z,99.90
2023-05-23T02:48:49.284Z,99.90
2023-05-23T02:51:16.417Z,99.90
2023-05-23T02:53:43.431Z,99.90
2023-05-23T02:56:10.668Z,99.90
2023-05-23T02:58:37.687Z,99.90
2023-05-23T03:01:07.740Z,99.90
2023-05-23T03:03:35.350Z,99.90
2023-05-23T03:06:03.728Z,99.90
2023-05-23T03:08:30.965Z,99.90
2023-05-23T03:10:58.101Z,99.90
2023-05-23T03:13:25.116Z,99.90
2023-05-23T03:15:52.192Z,99.90
2023-05-23T03:18:19.231Z,99.90
2023-05-23T03:20:46.198Z,99.90
2023-05-23T03:23:13.227Z,99.90
2023-05-23T03:25:40.420Z,99.90
2023-05-23T03:28:07.521Z,99.90
2023-05-23T03:30:34.583Z,99.90
2023-05-23T03:33:02.860Z,99.90
2023-05-23T03:35:29.928Z,99.90
2023-05-23T03:37:57.033Z,99.90
2023-05-23T03:40:24.161Z,99.90
2023-05-23T03:43:03.604Z,99.90
2023-05-23T03:45:31.289Z,99.90
2023-05-23T03:47:58.888Z,99.90
2023-05-23T03:50:26.234Z,99.90
2023-05-23T03:52:53.545Z,99.90
2023-05-23T03:55:22.662Z,99.90
2023-05-23T03:57:49.931Z,99.90
2023-05-23T04:00:17.183Z,99.90
2023-05-23T04:02:46.767Z,99.90
2023-05-23T04:05:14.043Z,99.90
2023-05-23T04:07:42.114Z,99.90
2023-05-23T04:10:09.677Z,99.90
2023-05-23T04:12:37.125Z,99.90
2023-05-23T04:15:04.434Z,99.90
2023-05-23T04:17:31.686Z,99.90
2023-05-23T04:19:58.761Z,99.90
2023-05-23T04:22:25.787Z,99.90
2023-05-23T04:24:53.201Z,99.90
2023-05-23T04:27:20.360Z,99.90
2023-05-23T04:29:47.381Z,99.90
2023-05-23T04:32:15.079Z,99.90
2023-05-23T04:34:42.081Z,99.90
2023-05-23T04:37:10.051Z,99.90
2023-05-23T04:39:37.249Z,99.90
2023-05-23T04:42:04.362Z,99.90
2023-05-23T04:44:31.302Z,99.90
2023-05-23T04:46:58.293Z,99.90
2023-05-23T04:49:25.761Z,99.90
2023-05-23T04:51:52.881Z,99.90
2023-05-23T04:54:19.936Z,99.90
2023-05-23T04:56:46.884Z,99.90
2023-05-23T04:59:13.947Z,99.90
2023-05-23T05:01:41.228Z,99.90
2023-05-23T05:04:08.681Z,99.90
2023-05-23T05:06:35.747Z,99.90
2023-05-23T05:09:02.739Z,99.90
2023-05-23T05:11:29.749Z,99.90
2023-05-23T05:13:56.789Z,99.90
2023-05-23T05:16:23.788Z,99.90
2023-05-23T05:18:51.998Z,99.90
2023-05-23T05:21:19.031Z,99.90
2023-05-23T05:23:46.520Z,99.90
2023-05-23T05:26:13.527Z,99.90
2023-05-23T05:28:41.422Z,99.90
2023-05-23T05:31:08.488Z,99.90
2023-05-23T05:33:36.469Z,99.90
2023-05-23T05:36:04.034Z,99.90
2023-05-23T05:38:31.194Z,99.90
2023-05-23T05:40:58.296Z,99.90
2023-05-23T05:43:26.471Z,99.90
2023-05-23T05:45:53.563Z,99.90
2023-05-23T05:48:20.622Z,99.90
2023-05-23T05:50:47.609Z,99.90
2023-05-23T05:53:14.601Z,99.90
2023-05-23T05:55:41.709Z,99.90
2023-05-23T05:58:08.687Z,99.90
2023-05-23T06:00:42.564Z,99.90
2023-05-23T06:03:09.978Z,99.90
2023-05-23T06:05:37.776Z,99.90
2023-05-23T06:08:05.162Z,99.90
2023-05-23T06:10:32.176Z,99.90
2023-05-23T06:12:59.396Z,99.90
2023-05-23T06:15:26.691Z,99.90
2023-05-23T06:17:53.901Z,99.90
2023-05-23T06:20:21.016Z,99.90
2023-05-23T06:22:48.392Z,99.90
2023-05-23T06:25:16.220Z,99.90
2023-05-23T06:27:45.102Z,99.90
2023-05-23T06:30:12.660Z,99.90
2023-05-23T06:32:40.929Z,99.90
2023-05-23T06:35:08.177Z,99.90
2023-05-23T06:37:35.371Z,99.90
2023-05-23T06:40:02.807Z,99.90
2023-05-23T06:42:30.041Z,99.90
2023-05-23T06:44:57.123Z,99.90
2023-05-23T06:47:24.206Z,99.90
2023-05-23T06:49:51.756Z,99.90
2023-05-23T06:52:18.822Z,99.90
2023-05-23T06:54:45.842Z,99.90
2023-05-23T06:57:12.871Z,99.90
2023-05-23T06:59:39.908Z,99.90
2023-05-23T07:02:06.889Z,99.90
2023-05-23T07:04:33.886Z,99.90
2023-05-23T07:07:01.056Z,99.90
2023-05-23T07:09:28.198Z,99.90
2023-05-23T07:11:55.416Z,99.90
2023-05-23T07:14:22.514Z,99.90
2023-05-23T07:16:49.644Z,99.90
2023-05-23T07:19:16.833Z,99.90
2023-05-23T07:21:43.896Z,99.90
2023-05-23T07:24:10.899Z,99.90
2023-05-23T07:26:38.050Z,99.90
2023-05-23T07:29:04.995Z,99.90
2023-05-23T07:31:32.020Z,99.90
2023-05-23T07:33:59.049Z,99.90
2023-05-23T07:36:26.125Z,99.90
2023-05-23T07:38:53.578Z,99.90
2023-05-23T07:41:21.205Z,99.90
2023-05-23T07:43:48.211Z,99.90
2023-05-23T07:46:15.584Z,99.90
2023-05-23T07:48:42.707Z,99.90
2023-05-23T07:51:09.838Z,99.90
2023-05-23T07:53:40.397Z,99.90
2023-05-23T07:56:07.521Z,99.90
2023-05-23T07:58:34.563Z,99.90
2023-05-23T08:01:02.311Z,99.90
2023-05-23T08:03:29.375Z,99.90
2023-05-23T08:05:56.801Z,99.90
2023-05-23T08:08:24.001Z,99.90
2023-05-23T08:10:51.609Z,99.90
2023-05-23T08:13:18.666Z,99.90
2023-05-23T08:15:46.009Z,99.90
2023-05-23T08:18:13.462Z,99.90
2023-05-23T08:20:40.822Z,99.90
2023-05-23T08:23:08.150Z,99.90
2023-05-23T08:25:35.231Z,99.90
2023-05-23T08:28:02.256Z,99.90
2023-05-23T08:30:29.658Z,99.90
2023-05-23T08:32:57.308Z,99.90
2023-05-23T08:35:24.677Z,99.90
2023-05-23T08:37:52.738Z,99.90
2023-05-23T08:40:23.633Z,99.90
2023-05-23T08:42:51.323Z,99.90
2023-05-23T08:45:18.977Z,99.90
2023-05-23T08:47:46.873Z,99.90
2023-05-23T08:50:14.904Z,99.90
2023-05-23T08:52:50.633Z,99.90
2023-05-23T08:55:18.029Z,99.90
2023-05-23T08:57:45.927Z,99.90
2023-05-23T09:00:15.876Z,99.90
2023-05-23T09:02:46.674Z,99.90
2023-05-23T09:05:14.070Z,99.90
2023-05-23T09:07:42.302Z,99.90
2023-05-23T09:10:10.029Z,99.90
2023-05-23T09:12:37.673Z,99.90
2023-05-23T09:15:05.558Z,99.90
2023-05-23T09:17:33.749Z,99.90
2023-05-23T09:20:05.575Z,99.90
2023-05-23T09:22:32.637Z,99.90
2023-05-23T09:25:00.712Z,99.90
2023-05-23T09:27:28.162Z,99.90
2023-05-23T09:29:55.319Z,99.90
2023-05-23T09:32:22.417Z,99.90
2023-05-23T09:34:57.373Z,99.90
2023-05-23T09:37:46.215Z,99.90
2023-05-23T09:40:14.501Z,99.90
2023-05-23T09:42:46.016Z,99.90
2023-05-23T09:45:13.710Z,99.90
2023-05-23T09:47:49.273Z,99.90
2023-05-23T09:50:16.447Z,99.90
2023-05-23T09:52:43.503Z,99.90
2023-05-23T09:55:10.935Z,99.90
2023-05-23T09:57:42.253Z,99.90
2023-05-23T10:00:11.654Z,99.90
2023-05-23T10:02:41.618Z,99.90
2023-05-23T10:05:09.471Z,99.90
2023-05-23T10:07:37.558Z,99.90
2023-05-23T10:10:07.162Z,99.90
2023-05-23T10:12:50.398Z,99.90
2023-05-23T10:15:18.859Z,99.90
2023-05-23T10:17:46.569Z,99.90
2023-05-23T10:20:16.392Z,99.90
2023-05-23T10:22:43.846Z,99.90
2023-05-23T10:25:10.920Z,99.90
2023-05-23T10:27:39.499Z,99.90
2023-05-23T10:30:07.695Z,99.90
2023-05-23T10:32:36.071Z,99.90
2023-05-23T10:35:14.994Z,99.90
2023-05-23T10:37:51.341Z,99.90
2023-05-23T10:40:18.376Z,99.90
2023-05-23T10:42:51.283Z,99.90
2023-05-23T10:45:21.024Z,99.90
2023-05-23T10:47:49.125Z,99.90
2023-05-23T10:50:31.102Z,99.90
2023-05-23T10:52:58.109Z,99.90
2023-05-23T10:55:25.123Z,99.90
2023-05-23T10:58:11.634Z,99.90
2023-05-23T11:00:38.868Z,99.90
2023-05-23T11:03:09.374Z,99.90
2023-05-23T11:05:38.982Z,99.90
2023-05-23T11:08:15.359Z,99.90
2023-05-23T11:11:01.566Z,99.90
2023-05-23T11:13:47.025Z,99.90
2023-05-23T11:16:30.566Z,99.90
2023-05-23T11:19:16.286Z,99.90
2023-05-23T11:21:43.753Z,99.90
2023-05-23T11:24:10.805Z,99.90
2023-05-23T11:26:37.828Z,99.90
2023-05-23T11:29:08.589Z,99.90
2023-05-23T11:31:39.066Z,99.90
2023-05-23T11:34:07.044Z,99.90
2023-05-23T11:36:34.102Z,99.90
2023-05-23T11:39:04.489Z,99.90
2023-05-23T11:41:31.773Z,99.90
2023-05-23T11:44:00.149Z,99.90
2023-05-23T11:46:27.433Z,99.90
2023-05-23T11:48:55.081Z,99.90
2023-05-23T11:51:22.181Z,99.90
2023-05-23T11:53:49.308Z,99.90
2023-05-23T11:56:17.032Z,99.90
2023-05-23T11:58:45.486Z,99.40
2023-05-23T12:01:13.016Z,99.90
2023-05-23T12:03:47.215Z,98.90
2023-05-23T12:06:20.975Z,99.20
2023-05-23T12:08:48.334Z,99.30
2023-05-23T12:11:15.586Z,99.10
2023-05-23T12:13:42.699Z,99.00
2023-05-23T12:16:10.004Z,99.40
2023-05-23T12:18:38.206Z,97.60
2023-05-23T12:21:08.641Z,98.30
2023-05-23T12:23:36.489Z,97.60
2023-05-23T12:26:10.584Z,97.20
2023-05-23T12:28:38.621Z,98.00
2023-05-23T12:31:12.684Z,97.20
2023-05-23T12:33:40.868Z,97.80
2023-05-23T12:36:09.588Z,97.30
2023-05-23T12:38:41.252Z,98.20
2023-05-23T12:41:09.180Z,98.70
2023-05-23T12:43:40.187Z,97.60
2023-05-23T12:46:10.188Z,98.00
2023-05-23T12:48:37.291Z,96.50
2023-05-23T12:51:04.532Z,96.80
2023-05-23T12:53:31.791Z,97.80
2023-05-23T12:55:58.844Z,96.30
2023-05-23T12:58:25.937Z,96.40
2023-05-23T13:00:52.954Z,96.30
2023-05-23T13:03:20.298Z,95.70
2023-05-23T13:05:47.375Z,97.90
2023-05-23T13:08:14.468Z,97.80
2023-05-23T13:10:41.474Z,95.80
2023-05-23T13:13:08.469Z,97.20
2023-05-23T13:15:36.144Z,97.90
2023-05-23T13:18:03.366Z,97.20
2023-05-23T13:20:31.169Z,96.20
2023-05-23T13:22:58.249Z,95.20
2023-05-23T13:25:26.190Z,95.30
2023-05-23T13:27:53.754Z,96.00
2023-05-23T13:30:21.324Z,97.00
2023-05-23T13:32:49.565Z,95.90
2023-05-23T13:35:18.682Z,95.90
2023-05-23T13:37:45.968Z,95.60
2023-05-23T13:40:13.939Z,94.00
2023-05-23T13:42:40.949Z,95.10
2023-05-23T13:45:08.299Z,94.70
2023-05-23T13:47:36.584Z,95.70
2023-05-23T13:50:04.316Z,95.60
2023-05-23T13:52:31.507Z,94.30
2023-05-23T13:55:00.063Z,93.10
2023-05-23T13:57:27.321Z,93.30
2023-05-23T13:59:54.345Z,94.80
2023-05-23T14:02:23.030Z,95.10
2023-05-23T14:04:52.942Z,94.80
2023-05-23T14:07:19.984Z,95.00
2023-05-23T14:09:47.026Z,94.90
2023-05-23T14:12:14.000Z,93.60
2023-05-23T14:14:41.118Z,92.30
2023-05-23T14:17:08.109Z,92.00
2023-05-23T14:19:35.356Z,93.00
2023-05-23T14:22:02.485Z,93.00
2023-05-23T14:24:29.583Z,93.30
2023-05-23T14:26:56.663Z,93.10
2023-05-23T14:29:23.790Z,92.80
2023-05-23T14:31:50.832Z,92.70
2023-05-23T14:34:18.082Z,92.60
2023-05-23T14:36:45.120Z,93.60
2023-05-23T14:39:12.126Z,93.40
2023-05-23T14:41:39.252Z,93.80
2023-05-23T14:44:06.471Z,93.20
2023-05-23T14:46:33.622Z,93.10
2023-05-23T14:49:01.010Z,92.80
2023-05-23T14:51:43.149Z,93.80
2023-05-23T14:54:13.799Z,93.20
2023-05-23T14:56:41.931Z,93.40
2023-05-23T14:59:09.324Z,92.80
2023-05-23T15:01:38.730Z,91.50
2023-05-23T15:04:09.785Z,92.80
2023-05-23T15:06:38.291Z,92.50
2023-05-23T15:09:05.475Z,92.00
2023-05-23T15:11:33.444Z,92.70
2023-05-23T15:14:00.977Z,92.50
2023-05-23T15:16:33.075Z,92.50
2023-05-23T15:19:00.693Z,92.10
2023-05-23T15:21:27.936Z,91.80
2023-05-23T15:23:55.028Z,91.70
2023-05-23T15:26:22.790Z,92.50
2023-05-23T15:28:49.858Z,90.70
2023-05-23T15:31:17.088Z,90.70
2023-05-23T15:33:44.104Z,91.10
2023-05-23T15:36:13.454Z,92.10
2023-05-23T15:38:40.762Z,91.50
2023-05-23T15:41:07.781Z,91.40
2023-05-23T15:43:35.785Z,91.10
2023-05-23T15:46:03.209Z,91.70
2023-05-23T15:48:30.275Z,90.50
2023-05-23T15:50:57.234Z,92.00
2023-05-23T15:53:24.294Z,91.00
2023-05-23T15:55:51.337Z,91.30
2023-05-23T15:58:18.650Z,91.20
2023-05-23T16:00:45.762Z,90.90
2023-05-23T16:03:13.009Z,90.70
2023-05-23T16:05:40.175Z,90.70
2023-05-23T16:08:07.355Z,89.50
2023-05-23T16:10:34.357Z,90.50
2023-05-23T16:13:01.573Z,90.30
2023-05-23T16:15:28.604Z,91.20
2023-05-23T16:17:55.802Z,91.40
2023-05-23T16:20:22.892Z,91.70
2023-05-23T16:22:49.861Z,91.70
2023-05-23T16:25:16.977Z,91.60
2023-05-23T16:27:44.367Z,92.10
2023-05-23T16:30:11.518Z,90.70
2023-05-23T16:32:38.598Z,90.70
2023-05-23T16:35:05.895Z,91.00
2023-05-23T16:37:32.941Z,91.30
2023-05-23T16:40:00.279Z,90.70
2023-05-23T16:42:27.434Z,91.40
2023-05-23T16:44:54.538Z,91.60
2023-05-23T16:47:21.638Z,91.40
2023-05-23T16:49:48.966Z,92.20
2023-05-23T16:52:17.005Z,92.00
2023-05-23T16:54:44.297Z,92.30
2023-05-23T16:57:11.620Z,92.30
2023-05-23T16:59:38.694Z,92.20
2023-05-23T17:02:05.790Z,92.50
2023-05-23T17:04:32.779Z,93.50
2023-05-23T17:06:59.858Z,94.00
2023-05-23T17:09:26.904Z,94.20
2023-05-23T17:11:53.968Z,94.30
2023-05-23T17:14:21.226Z,94.50
2023-05-23T17:16:48.214Z,94.60
2023-05-23T17:19:15.391Z,95.20
2023-05-23T17:21:42.431Z,95.20
2023-05-23T17:24:09.601Z,95.30
2023-05-23T17:26:36.607Z,95.40
2023-05-23T17:29:03.662Z,95.80
2023-05-23T17:31:31.067Z,96.00
2023-05-23T17:33:58.280Z,96.40
2023-05-23T17:36:25.395Z,96.20
2023-05-23T17:38:55.200Z,96.70
2023-05-23T17:41:24.830Z,96.90
2023-05-23T17:43:51.862Z,96.70
2023-05-23T17:46:18.993Z,96.60
2023-05-23T17:48:48.091Z,96.40
2023-05-23T17:51:16.152Z,96.20
2023-05-23T17:53:43.629Z,96.00
2023-05-23T17:56:10.748Z,96.30
2023-05-23T17:58:39.326Z,96.10
2023-05-23T18:01:08.887Z,96.20
2023-05-23T18:03:35.921Z,96.30
2023-05-23T18:06:02.994Z,96.00
2023-05-23T18:08:30.032Z,96.10
2023-05-23T18:10:57.524Z,96.30
2023-05-23T18:13:24.663Z,96.20
2023-05-23T18:15:51.617Z,96.20
2023-05-23T18:18:18.741Z,96.20
2023-05-23T18:20:45.809Z,96.20
2023-05-23T18:23:12.911Z,96.20
2023-05-23T18:25:40.000Z,96.20
2023-05-23T18:28:07.124Z,95.90
2023-05-23T18:30:34.199Z,95.90
2023-05-23T18:33:01.418Z,96.00
2023-05-23T18:35:28.570Z,96.20
2023-05-23T18:37:55.801Z,96.20
2023-05-23T18:40:24.476Z,96.30
2023-05-23T18:42:51.634Z,96.50
2023-05-23T18:45:18.728Z,96.70
2023-05-23T18:47:45.727Z,96.90
2023-05-23T18:50:13.287Z,96.90
2023-05-23T18:52:40.908Z,96.70
2023-05-23T18:55:08.102Z,96.90
2023-05-23T18:57:35.116Z,96.90
2023-05-23T19:00:02.797Z,97.00
2023-05-23T19:02:29.972Z,97.00
2023-05-23T19:04:57.105Z,97.00
2023-05-23T19:07:24.322Z,97.10
2023-05-23T19:09:52.037Z,97.00
2023-05-23T19:12:19.333Z,96.60
2023-05-23T19:14:46.767Z,96.50
2023-05-23T19:17:13.858Z,96.80
2023-05-23T19:19:41.120Z,97.00
2023-05-23T19:22:08.648Z,97.00
2023-05-23T19:24:35.840Z,96.90
2023-05-23T19:27:02.892Z,97.10
2023-05-23T19:29:29.935Z,96.90
2023-05-23T19:31:57.511Z,97.00
2023-05-23T19:34:24.739Z,97.00
2023-05-23T19:36:51.837Z,97.20
2023-05-23T19:39:19.410Z,97.70
2023-05-23T19:41:46.611Z,97.90
2023-05-23T19:44:13.878Z,98.60
2023-05-23T19:46:40.924Z,98.50
2023-05-23T19:49:11.034Z,98.70
2023-05-23T19:51:38.553Z,99.10
2023-05-23T19:54:05.984Z,99.10
2023-05-23T19:56:34.606Z,99.20
2023-05-23T19:59:01.840Z,99.30
2023-05-23T20:01:31.048Z,99.20
2023-05-23T20:03:58.141Z,99.70
2023-05-23T20:06:25.642Z,99.70
2023-05-23T20:08:52.615Z,99.90
2023-05-23T20:11:19.776Z,99.90
2023-05-23T20:13:46.925Z,99.90
2023-05-23T20:16:14.241Z,99.90
2023-05-23T20:18:42.619Z,99.90
2023-05-23T20:21:09.690Z,99.90
2023-05-23T20:23:36.632Z,99.90
2023-05-23T20:26:03.849Z,99.90
2023-05-23T20:28:30.883Z,99.90
2023-05-23T20:30:58.725Z,99.90
2023-05-23T20:33:25.868Z,99.90
2023-05-23T20:35:54.581Z,99.90
2023-05-23T20:38:21.623Z,99.90
2023-05-23T20:40:52.458Z,99.90
2023-05-23T20:43:20.569Z,99.90
2023-05-23T20:45:48.517Z,99.90
2023-05-23T20:48:15.827Z,99.90
2023-05-23T20:50:44.369Z,99.90
2023-05-23T20:53:11.555Z,99.90
2023-05-23T20:55:38.595Z,99.90
2023-05-23T20:58:05.680Z,99.90
2023-05-23T21:00:32.725Z,99.90
2023-05-23T21:02:59.810Z,99.90
2023-05-23T21:05:27.129Z,99.90
2023-05-23T21:07:54.412Z,99.90
2023-05-23T21:10:21.416Z,99.90
2023-05-23T21:12:50.421Z,99.90
2023-05-23T21:15:17.626Z,99.90
2023-05-23T21:17:44.938Z,99.90
2023-05-23T21:20:12.289Z,99.90
2023-05-23T21:22:39.612Z,99.90
2023-05-23T21:25:06.777Z,99.90
2023-05-23T21:27:33.789Z,99.90
2023-05-23T21:30:00.848Z,99.90
2023-05-23T21:32:27.986Z,99.90
2023-05-23T21:34:55.069Z,99.90
2023-05-23T21:37:22.098Z,99.90
2023-05-23T21:39:52.315Z,99.90
2023-05-23T21:42:21.344Z,99.90
2023-05-23T21:44:48.587Z,99.90
2023-05-23T21:47:15.766Z,99.90
2023-05-23T21:49:42.914Z,99.90
2023-05-23T21:52:09.988Z,99.90
2023-05-23T21:54:37.138Z,99.90
2023-05-23T21:57:04.249Z,99.90
2023-05-23T21:59:31.323Z,99.90
2023-05-23T22:01:58.432Z,99.90
2023-05-23T22:04:25.933Z,99.90
2023-05-23T22:06:52.987Z,99.90
2023-05-23T22:09:20.544Z,99.90
2023-05-23T22:11:47.551Z,99.90
2023-05-23T22:14:14.601Z,99.90
2023-05-23T22:16:41.683Z,99.90
2023-05-23T22:19:10.524Z,99.90
2023-05-23T22:21:37.818Z,99.90
2023-05-23T22:24:05.234Z,99.90
2023-05-23T22:26:32.513Z,99.90
2023-05-23T22:28:59.635Z,99.90
2023-05-23T22:31:26.815Z,99.90
2023-05-23T22:33:53.925Z,99.90
2023-05-23T22:36:22.362Z,99.90
2023-05-23T22:38:49.489Z,99.90
2023-05-23T22:41:16.876Z,99.90
2023-05-23T22:43:44.060Z,99.90
2023-05-23T22:46:11.493Z,99.90
2023-05-23T22:48:39.365Z,99.90
2023-05-23T22:51:08.117Z,99.90
2023-05-23T22:53:35.274Z,99.90
2023-05-23T22:56:03.096Z,99.90
2023-05-23T22:58:30.137Z,99.90
2023-05-23T23:00:57.267Z,99.90
2023-05-23T23:03:24.585Z,99.90
2023-05-23T23:05:51.890Z,99.90
2023-05-23T23:08:19.680Z,99.90
2023-05-23T23:10:46.806Z,99.90
2023-05-23T23:13:14.429Z,99.90
2023-05-23T23:15:43.174Z,99.90
2023-05-23T23:18:10.657Z,99.90
2023-05-23T23:20:39.068Z,99.90
2023-05-23T23:23:06.218Z,99.90
2023-05-23T23:25:33.578Z,99.90
2023-05-23T23:28:01.123Z,99.90
2023-05-23T23:30:28.253Z,99.90
2023-05-23T23:32:55.518Z,99.90
2023-05-23T23:35:22.681Z,99.90
2023-05-23T23:37:49.746Z,99.90
2023-05-23T23:40:16.999Z,99.90
2023-05-23T23:42:44.100Z,99.90
2023-05-23T23:45:11.673Z,99.90
2023-05-23T23:47:38.793Z,99.90
2023-05-23T23:50:06.996Z,99.90
2023-05-23T23:52:34.173Z,99.90
2023-05-23T23:55:01.732Z,99.90
2023-05-23T23:57:28.822Z,99.90
2023-05-23T23:59:55.805Z,99.90
